createdAt,value
2022-07-29T00:00:58.647Z,1.83
2022-07-29T00:03:25.216Z,1.70
2022-07-29T00:05:53.940Z,1.70
2022-07-29T00:08:20.921Z,1.87
2022-07-29T00:10:47.572Z,1.90
2022-07-29T00:13:14.179Z,1.80
2022-07-29T00:15:40.723Z,1.90
2022-07-29T00:18:07.266Z,1.90
2022-07-29T00:20:33.783Z,2.03
2022-07-29T00:23:00.326Z,1.93
2022-07-29T00:25:27.008Z,1.83
2022-07-29T00:27:53.492Z,1.70
2022-07-29T00:30:20.514Z,2.13
2022-07-29T00:32:47.048Z,1.80
2022-07-29T00:35:32.530Z,2.00
2022-07-29T00:38:00.117Z,1.80
2022-07-29T00:40:28.610Z,2.00
2022-07-29T00:42:55.516Z,1.63
2022-07-29T00:45:23.105Z,1.83
2022-07-29T00:47:49.866Z,1.50
2022-07-29T00:50:16.562Z,2.00
2022-07-29T00:52:43.363Z,1.77
2022-07-29T00:55:15.580Z,1.60
2022-07-29T00:57:43.539Z,1.70
2022-07-29T01:00:13.912Z,1.60
2022-07-29T01:02:40.452Z,2.07
2022-07-29T01:05:07.436Z,1.70
2022-07-29T01:07:37.784Z,2.10
2022-07-29T01:10:07.255Z,1.70
2022-07-29T01:12:35.454Z,1.90
2022-07-29T01:15:05.197Z,1.90
2022-07-29T01:17:53.236Z,1.63
2022-07-29T01:20:31.937Z,2.00
2022-07-29T01:23:08.028Z,1.70
2022-07-29T01:25:59.250Z,1.93
2022-07-29T01:29:13.635Z,1.87
2022-07-29T01:31:59.026Z,1.87
2022-07-29T01:34:32.410Z,1.70
2022-07-29T01:37:07.743Z,1.70
2022-07-29T01:39:37.617Z,1.83
2022-07-29T01:42:11.070Z,1.90
2022-07-29T01:45:10.580Z,1.50
2022-07-29T01:47:57.384Z,1.57
2022-07-29T01:50:32.579Z,1.73
2022-07-29T01:53:05.538Z,1.80
2022-07-29T01:55:39.617Z,1.60
2022-07-29T01:58:07.944Z,1.97
2022-07-29T02:00:35.612Z,1.93
2022-07-29T02:03:07.269Z,1.80
2022-07-29T02:05:36.348Z,2.20
2022-07-29T02:08:05.237Z,1.90
2022-07-29T02:10:34.541Z,1.67
2022-07-29T02:13:03.214Z,2.03
2022-07-29T02:15:32.918Z,2.07
2022-07-29T02:18:06.182Z,1.90
2022-07-29T02:20:33.761Z,2.00
2022-07-29T02:23:01.831Z,1.80
2022-07-29T02:25:37.669Z,1.80
2022-07-29T02:28:07.124Z,1.90
2022-07-29T02:30:34.845Z,1.60
2022-07-29T02:33:02.787Z,1.90
2022-07-29T02:35:34.897Z,2.00
2022-07-29T02:38:22.806Z,2.07
2022-07-29T02:40:52.038Z,1.93
2022-07-29T02:43:20.130Z,1.80
2022-07-29T02:45:51.992Z,1.90
2022-07-29T02:48:21.167Z,2.00
2022-07-29T02:50:55.659Z,1.67
2022-07-29T02:53:26.044Z,2.03
2022-07-29T02:56:00.193Z,2.17
2022-07-29T02:58:38.975Z,1.67
2022-07-29T03:01:21.675Z,1.83
2022-07-29T03:03:50.407Z,1.77
2022-07-29T03:06:30.911Z,2.20
2022-07-29T03:09:10.444Z,1.40
2022-07-29T03:11:46.120Z,1.93
2022-07-29T03:14:18.698Z,1.67
2022-07-29T03:16:46.424Z,1.80
2022-07-29T03:19:13.323Z,1.83
2022-07-29T03:21:40.086Z,1.83
2022-07-29T03:24:10.550Z,1.90
2022-07-29T03:26:37.875Z,2.07
2022-07-29T03:29:05.134Z,2.27
2022-07-29T03:31:32.342Z,1.80
2022-07-29T03:34:00.234Z,1.50
2022-07-29T03:36:27.064Z,1.57
2022-07-29T03:38:54.552Z,1.60
2022-07-29T03:41:23.744Z,1.70
2022-07-29T03:43:52.752Z,1.60
2022-07-29T03:46:23.579Z,1.70
2022-07-29T03:48:54.114Z,2.13
2022-07-29T03:51:33.336Z,2.13
2022-07-29T03:54:07.675Z,2.57
2022-07-29T03:56:39.686Z,2.30
2022-07-29T03:59:07.711Z,1.80
2022-07-29T04:01:35.439Z,1.60
2022-07-29T04:04:04.166Z,1.63
2022-07-29T04:06:38.666Z,1.83
2022-07-29T04:09:05.151Z,1.90
2022-07-29T04:11:56.974Z,2.00
2022-07-29T04:14:25.122Z,2.50
2022-07-29T04:16:51.613Z,2.10
2022-07-29T04:19:18.422Z,2.20
2022-07-29T04:21:46.097Z,2.30
2022-07-29T04:24:12.899Z,2.67
2022-07-29T04:26:39.756Z,2.40
2022-07-29T04:29:06.196Z,2.60
2022-07-29T04:31:32.852Z,2.33
2022-07-29T04:33:59.388Z,3.40
2022-07-29T04:36:29.092Z,3.57
2022-07-29T04:38:56.515Z,3.90
2022-07-29T04:41:23.492Z,3.60
2022-07-29T04:44:01.769Z,3.17
2022-07-29T04:46:28.867Z,3.57
2022-07-29T04:48:55.507Z,2.50
2022-07-29T04:51:22.070Z,2.47
2022-07-29T04:53:48.809Z,2.40
2022-07-29T04:56:15.338Z,2.30
2022-07-29T04:58:41.963Z,2.10
2022-07-29T05:01:08.457Z,2.03
2022-07-29T05:03:34.931Z,2.27
2022-07-29T05:06:01.357Z,1.83
2022-07-29T05:08:27.812Z,2.00
2022-07-29T05:10:54.464Z,2.07
2022-07-29T05:13:20.993Z,2.00
2022-07-29T05:15:47.478Z,2.30
2022-07-29T05:18:14.360Z,2.37
2022-07-29T05:20:40.988Z,3.23
2022-07-29T05:23:07.677Z,2.60
2022-07-29T05:25:44.436Z,2.40
2022-07-29T05:28:12.363Z,2.20
2022-07-29T05:30:39.089Z,2.43
2022-07-29T05:33:05.869Z,2.20
2022-07-29T05:35:32.363Z,2.40
2022-07-29T05:37:58.835Z,2.70
2022-07-29T05:40:25.254Z,2.10
2022-07-29T05:42:51.718Z,2.50
2022-07-29T05:45:18.230Z,3.57
2022-07-29T05:47:44.729Z,2.80
2022-07-29T05:50:11.481Z,2.40
2022-07-29T05:52:38.027Z,2.30
2022-07-29T05:55:06.444Z,2.80
2022-07-29T05:57:33.201Z,1.97
2022-07-29T06:00:00.296Z,2.43
2022-07-29T06:02:26.857Z,2.20
2022-07-29T06:04:53.536Z,2.20
2022-07-29T06:07:20.338Z,2.43
2022-07-29T06:09:46.783Z,2.40
2022-07-29T06:12:13.494Z,2.10
2022-07-29T06:14:39.977Z,2.50
2022-07-29T06:17:06.799Z,2.40
2022-07-29T06:19:35.832Z,3.07
2022-07-29T06:22:02.414Z,2.73
2022-07-29T06:24:29.112Z,2.60
2022-07-29T06:26:55.903Z,2.57
2022-07-29T06:29:22.488Z,2.50
2022-07-29T06:31:48.988Z,2.63
2022-07-29T06:34:16.932Z,2.60
2022-07-29T06:36:44.366Z,2.90
2022-07-29T06:39:12.524Z,2.80
2022-07-29T06:41:38.987Z,3.10
2022-07-29T06:44:05.891Z,2.63
2022-07-29T06:46:33.143Z,2.60
2022-07-29T06:49:02.103Z,2.80
2022-07-29T06:51:28.626Z,2.80
2022-07-29T06:54:00.422Z,2.53
2022-07-29T06:56:38.182Z,3.07
2022-07-29T06:59:07.707Z,2.30
2022-07-29T07:01:34.237Z,2.80
2022-07-29T07:04:00.813Z,2.73
2022-07-29T07:06:27.572Z,2.87
2022-07-29T07:08:54.040Z,2.67
2022-07-29T07:11:20.574Z,3.10
2022-07-29T07:13:47.064Z,3.13
2022-07-29T07:16:13.670Z,2.60
2022-07-29T07:18:40.149Z,3.67
2022-07-29T07:21:06.719Z,2.70
2022-07-29T07:23:33.264Z,2.63
2022-07-29T07:25:59.738Z,3.00
2022-07-29T07:28:26.161Z,3.20
2022-07-29T07:30:53.109Z,3.10
2022-07-29T07:33:20.235Z,3.23
2022-07-29T07:35:47.105Z,2.90
2022-07-29T07:38:13.641Z,3.57
2022-07-29T07:40:40.779Z,3.43
2022-07-29T07:43:07.246Z,3.00
2022-07-29T07:45:34.129Z,3.40
2022-07-29T07:48:00.947Z,3.13
2022-07-29T07:50:27.571Z,3.03
2022-07-29T07:52:59.082Z,3.23
2022-07-29T07:55:27.082Z,3.07
2022-07-29T07:57:54.817Z,3.20
2022-07-29T08:00:23.710Z,4.27
2022-07-29T08:02:51.426Z,3.80
2022-07-29T08:05:18.898Z,4.10
2022-07-29T08:07:47.290Z,4.00
2022-07-29T08:10:15.403Z,4.60
2022-07-29T08:12:42.935Z,4.57
2022-07-29T08:15:09.984Z,4.73
2022-07-29T08:17:36.623Z,4.23
2022-07-29T08:20:03.983Z,4.13
2022-07-29T08:22:30.897Z,3.93
2022-07-29T08:24:57.410Z,4.13
2022-07-29T08:27:42.883Z,4.37
2022-07-29T08:30:11.429Z,4.67
2022-07-29T08:32:53.230Z,5.27
2022-07-29T08:35:21.695Z,5.10
2022-07-29T08:37:48.361Z,5.10
2022-07-29T08:40:15.357Z,5.33
2022-07-29T08:42:41.804Z,5.27
2022-07-29T08:45:09.015Z,4.70
2022-07-29T08:47:40.330Z,4.60
2022-07-29T08:50:08.498Z,5.20
2022-07-29T08:52:38.232Z,4.90
2022-07-29T08:55:07.407Z,4.87
2022-07-29T08:57:35.089Z,5.47
2022-07-29T09:00:11.383Z,4.70
2022-07-29T09:02:42.629Z,4.40
2022-07-29T09:05:09.515Z,4.80
2022-07-29T09:07:36.515Z,5.23
2022-07-29T09:10:05.636Z,4.57
2022-07-29T09:12:37.557Z,5.50
2022-07-29T09:15:04.579Z,4.53
2022-07-29T09:17:44.583Z,4.50
2022-07-29T09:20:20.609Z,4.43
2022-07-29T09:22:50.513Z,4.67
2022-07-29T09:25:34.506Z,5.30
2022-07-29T09:28:12.661Z,5.07
2022-07-29T09:30:53.480Z,4.80
2022-07-29T09:33:20.523Z,4.93
2022-07-29T09:35:56.397Z,5.50
2022-07-29T09:38:23.635Z,5.13
2022-07-29T09:41:05.453Z,6.13
2022-07-29T09:43:32.899Z,5.70
2022-07-29T09:46:12.583Z,5.53
2022-07-29T09:48:39.212Z,5.37
2022-07-29T09:51:06.816Z,5.37
2022-07-29T09:53:38.764Z,5.00
2022-07-29T09:56:06.027Z,6.17
2022-07-29T09:58:35.842Z,6.10
2022-07-29T10:01:02.648Z,5.70
2022-07-29T10:03:29.210Z,6.03
2022-07-29T10:06:14.467Z,6.17
2022-07-29T10:08:42.647Z,5.63
2022-07-29T10:11:12.134Z,5.77
2022-07-29T10:13:39.504Z,5.47
2022-07-29T10:16:07.234Z,5.90
2022-07-29T10:18:34.669Z,5.53
2022-07-29T10:21:02.087Z,6.20
2022-07-29T10:23:30.252Z,5.67
2022-07-29T10:26:13.964Z,5.87
2022-07-29T10:28:40.455Z,5.70
2022-07-29T10:31:14.660Z,5.83
2022-07-29T10:33:47.583Z,5.30
2022-07-29T10:36:35.532Z,4.67
2022-07-29T10:39:41.916Z,5.20
2022-07-29T10:42:20.350Z,5.00
2022-07-29T10:44:57.146Z,4.93
2022-07-29T10:47:28.197Z,4.17
2022-07-29T10:50:05.458Z,4.50
2022-07-29T10:52:50.169Z,6.10
2022-07-29T10:58:26.667Z,4.70
2022-07-29T11:00:55.135Z,4.20
2022-07-29T11:03:52.437Z,4.00
2022-07-29T11:06:26.364Z,3.80
2022-07-29T11:09:20.485Z,3.03
2022-07-29T11:12:02.076Z,3.57
2022-07-29T11:15:02.387Z,3.50
2022-07-29T11:17:37.634Z,3.60
2022-07-29T11:20:36.534Z,4.00
2022-07-29T11:23:34.050Z,4.50
2022-07-29T11:26:23.007Z,3.67
2022-07-29T11:29:18.997Z,3.83
2022-07-29T11:31:55.319Z,3.73
2022-07-29T11:34:28.006Z,3.77
2022-07-29T11:37:08.345Z,4.10
2022-07-29T11:39:37.734Z,3.90
2022-07-29T11:42:32.606Z,4.87
2022-07-29T11:45:06.639Z,4.23
2022-07-29T11:47:48.551Z,4.40
2022-07-29T11:50:28.939Z,4.57
2022-07-29T11:52:55.996Z,4.33
2022-07-29T11:55:25.176Z,4.70
2022-07-29T11:58:04.050Z,5.40
2022-07-29T12:00:36.635Z,5.20
2022-07-29T12:03:05.738Z,5.10
2022-07-29T12:05:36.455Z,5.17
2022-07-29T12:08:20.506Z,4.73
2022-07-29T12:10:49.358Z,4.70
2022-07-29T12:13:18.242Z,4.80
2022-07-29T12:15:59.707Z,5.00
2022-07-29T12:18:27.733Z,5.10
2022-07-29T12:21:04.908Z,4.77
2022-07-29T12:23:35.558Z,4.50
2022-07-29T12:26:07.423Z,5.17
2022-07-29T12:28:40.503Z,4.00
2022-07-29T12:31:15.084Z,4.20
2022-07-29T12:34:02.457Z,4.43
2022-07-29T12:36:28.988Z,4.10
2022-07-29T12:38:55.507Z,4.10
2022-07-29T12:41:22.787Z,4.50
2022-07-29T12:43:55.530Z,4.27
2022-07-29T12:46:22.333Z,4.20
2022-07-29T12:48:55.596Z,4.03
2022-07-29T12:51:34.946Z,4.00
2022-07-29T12:54:16.211Z,3.60
2022-07-29T12:56:45.650Z,3.37
2022-07-29T12:59:17.537Z,3.50
2022-07-29T13:01:44.867Z,3.83
2022-07-29T13:04:12.059Z,3.93
2022-07-29T13:06:39.241Z,3.63
2022-07-29T13:09:23.745Z,3.63
2022-07-29T13:11:54.275Z,3.00
2022-07-29T13:14:38.304Z,4.07
2022-07-29T13:17:04.962Z,3.87
2022-07-29T13:19:41.456Z,4.30
2022-07-29T13:22:12.529Z,4.50
2022-07-29T13:25:04.615Z,4.00
2022-07-29T13:27:34.017Z,4.03
2022-07-29T13:30:02.307Z,4.80
2022-07-29T13:32:30.875Z,4.30
2022-07-29T13:34:58.709Z,4.10
2022-07-29T13:37:26.803Z,4.27
2022-07-29T13:39:54.596Z,4.40
2022-07-29T13:42:21.720Z,5.23
2022-07-29T13:44:49.558Z,4.30
2022-07-29T13:47:17.178Z,4.47
2022-07-29T13:49:43.662Z,4.90
2022-07-29T13:52:10.109Z,4.47
2022-07-29T13:54:42.299Z,5.10
2022-07-29T13:57:09.623Z,4.77
2022-07-29T13:59:36.111Z,3.93
2022-07-29T14:02:03.184Z,4.93
2022-07-29T14:04:29.732Z,4.90
2022-07-29T14:06:56.269Z,4.33
2022-07-29T14:09:22.783Z,4.03
2022-07-29T14:11:51.111Z,4.20
2022-07-29T14:14:18.217Z,4.30
2022-07-29T14:16:47.761Z,4.77
2022-07-29T14:19:18.406Z,5.03
2022-07-29T14:21:45.680Z,5.10
2022-07-29T14:24:18.028Z,5.40
2022-07-29T14:26:48.516Z,4.80
2022-07-29T14:29:15.108Z,4.17
2022-07-29T14:31:41.630Z,3.60
2022-07-29T14:34:08.075Z,3.43
2022-07-29T14:36:34.536Z,3.43
2022-07-29T14:39:00.974Z,4.17
2022-07-29T14:41:29.447Z,3.90
2022-07-29T14:43:56.081Z,4.00
2022-07-29T14:46:22.945Z,3.93
2022-07-29T14:48:49.635Z,3.87
2022-07-29T14:51:16.133Z,4.07
2022-07-29T14:53:42.555Z,4.00
2022-07-29T14:56:34.314Z,3.70
2022-07-29T14:58:58.198Z,3.40
2022-07-29T15:01:25.650Z,3.47
2022-07-29T15:03:56.853Z,2.93
2022-07-29T15:06:26.702Z,3.33
2022-07-29T15:08:53.253Z,3.47
2022-07-29T15:11:19.796Z,4.00
2022-07-29T15:13:46.466Z,4.40
2022-07-29T15:16:12.982Z,4.10
2022-07-29T15:18:39.803Z,3.80
2022-07-29T15:21:07.885Z,4.17
2022-07-29T15:23:37.149Z,3.83
2022-07-29T15:26:04.626Z,3.53
2022-07-29T15:28:31.138Z,3.57
2022-07-29T15:30:57.569Z,3.17
2022-07-29T15:33:24.498Z,3.70
2022-07-29T15:35:50.932Z,3.33
2022-07-29T15:38:18.150Z,3.90
2022-07-29T15:40:45.342Z,3.20
2022-07-29T15:43:12.505Z,3.80
2022-07-29T15:46:03.656Z,3.10
2022-07-29T15:48:30.382Z,3.27
2022-07-29T15:50:56.907Z,2.87
2022-07-29T15:53:23.422Z,2.00
2022-07-29T15:55:50.065Z,2.70
2022-07-29T15:58:16.741Z,3.10
2022-07-29T16:00:43.247Z,2.37
2022-07-29T16:03:09.813Z,2.70
2022-07-29T16:05:36.390Z,2.50
2022-07-29T16:08:04.505Z,2.53
2022-07-29T16:10:30.988Z,3.17
2022-07-29T16:12:57.418Z,2.80
2022-07-29T16:15:24.209Z,3.30
2022-07-29T16:17:50.669Z,2.57
2022-07-29T16:20:17.633Z,2.80
2022-07-29T16:22:44.155Z,2.90
2022-07-29T16:25:10.628Z,2.83
2022-07-29T16:27:37.857Z,2.77
2022-07-29T16:30:06.287Z,3.50
2022-07-29T16:32:32.812Z,2.93
2022-07-29T16:35:01.984Z,3.23
2022-07-29T16:37:33.492Z,3.30
2022-07-29T16:40:00.025Z,3.60
2022-07-29T16:42:45.482Z,3.70
2022-07-29T16:45:13.516Z,3.97
2022-07-29T16:47:40.614Z,3.80
2022-07-29T16:50:07.798Z,4.00
2022-07-29T16:52:34.281Z,3.90
2022-07-29T16:55:00.775Z,3.40
2022-07-29T16:57:27.305Z,3.63
2022-07-29T16:59:53.844Z,3.03
2022-07-29T17:02:20.399Z,2.83
2022-07-29T17:04:47.000Z,3.53
2022-07-29T17:07:14.106Z,3.20
2022-07-29T17:09:40.660Z,3.10
2022-07-29T17:12:07.356Z,2.83
2022-07-29T17:14:33.895Z,2.87
2022-07-29T17:17:02.582Z,2.70
2022-07-29T17:19:31.959Z,2.73
2022-07-29T17:22:06.366Z,2.97
2022-07-29T17:24:36.042Z,3.03
2022-07-29T17:27:02.587Z,3.10
2022-07-29T17:29:29.015Z,2.93
2022-07-29T17:31:55.482Z,3.40
2022-07-29T17:34:21.932Z,3.90
2022-07-29T17:36:48.446Z,2.80
2022-07-29T17:39:15.019Z,2.80
2022-07-29T17:41:42.072Z,2.90
2022-07-29T17:44:09.389Z,2.77
2022-07-29T17:46:36.641Z,2.63
2022-07-29T17:49:04.446Z,3.10
2022-07-29T17:51:30.926Z,2.50
2022-07-29T17:53:58.631Z,3.07
2022-07-29T17:56:25.750Z,2.70
2022-07-29T17:58:52.985Z,2.43
2022-07-29T18:01:19.641Z,2.90
2022-07-29T18:03:46.921Z,2.40
2022-07-29T18:06:13.442Z,3.13
2022-07-29T18:08:40.615Z,2.70
2022-07-29T18:11:07.118Z,3.03
2022-07-29T18:13:33.643Z,3.10
2022-07-29T18:16:00.887Z,2.90
2022-07-29T18:18:28.074Z,3.07
2022-07-29T18:20:54.715Z,3.17
2022-07-29T18:23:21.255Z,3.37
2022-07-29T18:25:48.172Z,3.20
2022-07-29T18:28:15.013Z,2.97
2022-07-29T18:30:41.681Z,3.27
2022-07-29T18:33:22.887Z,2.83
2022-07-29T18:35:51.542Z,2.70
2022-07-29T18:38:18.689Z,2.60
2022-07-29T18:40:46.170Z,3.00
2022-07-29T18:43:13.705Z,3.13
2022-07-29T18:45:40.507Z,2.73
2022-07-29T18:48:12.709Z,2.70
2022-07-29T18:50:40.690Z,3.27
2022-07-29T18:53:07.250Z,2.97
2022-07-29T18:55:34.166Z,3.30
2022-07-29T18:58:00.573Z,3.13
2022-07-29T19:00:27.636Z,2.87
2022-07-29T19:02:54.305Z,3.10
2022-07-29T19:05:21.218Z,2.57
2022-07-29T19:07:47.668Z,3.07
2022-07-29T19:10:14.365Z,2.67
2022-07-29T19:12:41.206Z,2.80
2022-07-29T19:15:08.440Z,2.97
2022-07-29T19:17:34.911Z,2.80
2022-07-29T19:20:01.867Z,2.93
2022-07-29T19:22:28.603Z,2.60
2022-07-29T19:24:55.086Z,2.60
2022-07-29T19:27:21.655Z,2.53
2022-07-29T19:29:48.184Z,2.70
2022-07-29T19:32:24.810Z,2.77
2022-07-29T19:35:11.328Z,2.60
2022-07-29T19:37:37.770Z,4.20
2022-07-29T19:40:05.938Z,5.17
2022-07-29T19:42:32.430Z,4.43
2022-07-29T19:44:58.932Z,4.83
2022-07-29T19:47:25.630Z,4.33
2022-07-29T19:49:52.142Z,4.10
2022-07-29T19:52:18.589Z,4.30
2022-07-29T19:54:45.161Z,4.20
2022-07-29T19:57:11.593Z,4.37
2022-07-29T19:59:38.633Z,4.20
2022-07-29T20:02:05.452Z,4.27
2022-07-29T20:04:32.348Z,4.37
2022-07-29T20:07:01.701Z,4.17
2022-07-29T20:09:28.971Z,4.60
2022-07-29T20:11:55.534Z,4.20
2022-07-29T20:14:22.812Z,4.37
2022-07-29T20:16:50.593Z,4.73
2022-07-29T20:19:17.423Z,5.80
2022-07-29T20:21:43.965Z,5.30
2022-07-29T20:24:10.639Z,5.87
2022-07-29T20:26:37.639Z,5.80
2022-07-29T20:29:05.262Z,6.10
2022-07-29T20:31:32.410Z,5.80
2022-07-29T20:33:59.228Z,5.03
2022-07-29T20:36:25.869Z,5.53
2022-07-29T20:38:52.348Z,5.20
2022-07-29T20:41:18.825Z,5.53
2022-07-29T20:43:45.536Z,5.33
2022-07-29T20:46:12.456Z,5.53
2022-07-29T20:48:40.410Z,5.00
2022-07-29T20:51:07.360Z,5.53
2022-07-29T20:53:34.040Z,5.30
2022-07-29T20:56:00.532Z,5.40
2022-07-29T20:58:26.972Z,5.67
2022-07-29T21:00:53.532Z,5.23
2022-07-29T21:03:20.224Z,5.23
2022-07-29T21:05:46.710Z,5.20
2022-07-29T21:08:13.524Z,5.17
2022-07-29T21:10:40.010Z,4.63
2022-07-29T21:13:06.473Z,4.63
2022-07-29T21:15:33.280Z,4.90
2022-07-29T21:18:02.250Z,5.33
2022-07-29T21:20:29.753Z,4.70
2022-07-29T21:22:56.360Z,4.60
2022-07-29T21:25:23.539Z,5.10
2022-07-29T21:28:09.396Z,4.87
2022-07-29T21:30:36.600Z,4.90
2022-07-29T21:33:03.834Z,5.17
2022-07-29T21:36:01.541Z,5.40
2022-07-29T21:38:18.381Z,4.93
2022-07-29T21:40:50.114Z,4.97
2022-07-29T21:43:17.827Z,5.23
2022-07-29T21:45:47.645Z,5.20
2022-07-29T21:48:14.229Z,5.60
2022-07-29T21:50:41.046Z,5.17
2022-07-29T21:53:07.802Z,6.43
2022-07-29T21:55:37.912Z,5.10
2022-07-29T21:58:04.447Z,5.17
2022-07-29T22:00:33.762Z,4.57
2022-07-29T22:03:04.641Z,4.80
2022-07-29T22:05:31.985Z,4.47
2022-07-29T22:07:58.813Z,5.07
2022-07-29T22:10:26.761Z,4.30
2022-07-29T22:12:54.798Z,4.30
2022-07-29T22:15:21.837Z,4.33
2022-07-29T22:17:48.449Z,4.13
2022-07-29T22:20:14.916Z,4.37
2022-07-29T22:22:42.207Z,4.40
2022-07-29T22:25:10.575Z,4.13
2022-07-29T22:27:37.299Z,4.10
2022-07-29T22:30:07.185Z,4.67
2022-07-29T22:32:34.268Z,4.30
2022-07-29T22:35:00.953Z,3.93
2022-07-29T22:37:27.434Z,3.77
2022-07-29T22:39:54.003Z,4.03
2022-07-29T22:42:21.018Z,3.90
2022-07-29T22:44:47.480Z,4.20
2022-07-29T22:47:14.167Z,4.13
2022-07-29T22:49:40.659Z,3.53
2022-07-29T22:52:09.060Z,4.50
2022-07-29T22:54:35.525Z,3.97
2022-07-29T22:57:02.973Z,4.17
2022-07-29T22:59:29.560Z,3.90
2022-07-29T23:01:56.167Z,3.90
2022-07-29T23:04:23.707Z,3.90
2022-07-29T23:06:51.214Z,3.90
2022-07-29T23:09:17.873Z,3.90
2022-07-29T23:11:44.519Z,4.17
2022-07-29T23:14:10.967Z,4.10
2022-07-29T23:16:37.504Z,4.47
2022-07-29T23:19:04.022Z,4.20
2022-07-29T23:21:30.539Z,4.40
2022-07-29T23:23:57.016Z,3.90
2022-07-29T23:26:23.493Z,4.47
2022-07-29T23:28:50.125Z,4.67
2022-07-29T23:31:17.342Z,3.90
2022-07-29T23:33:43.832Z,4.00
2022-07-29T23:36:10.510Z,3.73
2022-07-29T23:38:44.335Z,4.20
2022-07-29T23:41:10.777Z,4.40
2022-07-29T23:43:37.891Z,4.30
2022-07-29T23:46:04.705Z,4.10
2022-07-29T23:48:32.967Z,4.13
2022-07-29T23:51:01.003Z,4.47
2022-07-29T23:53:28.646Z,4.70
2022-07-29T23:55:56.085Z,4.00
2022-07-29T23:58:23.173Z,4.70
